sensor_id;sensor_type;location;lat;lon;timestamp;temperature;humidity
3713;DHT22;1872;51.406;6.856;2024-02-26T00:01:43;6.70;99.90
3713;DHT22;1872;51.406;6.856;2024-02-26T00:04:12;6.70;99.90
3713;DHT22;1872;51.406;6.856;2024-02-26T00:06:38;6.70;99.90
3713;DHT22;1872;51.406;6.856;2024-02-26T00:09:08;6.70;99.90
3713;DHT22;1872;51.406;6.856;2024-02-26T00:11:35;6.70;99.90
3713;DHT22;1872;51.406;6.856;2024-02-26T00:14:00;6.70;99.90
3713;DHT22;1872;51.406;6.856;2024-02-26T00:16:26;6.70;99.90
3713;DHT22;1872;51.406;6.856;2024-02-26T00:18:52;6.70;99.90
3713;DHT22;1872;51.406;6.856;2024-02-26T00:21:17;6.70;99.90
3713;DHT22;1872;51.406;6.856;2024-02-26T00:23:43;6.70;99.90
3713;DHT22;1872;51.406;6.856;2024-02-26T00:26:09;6.70;99.90
3713;DHT22;1872;51.406;6.856;2024-02-26T00:28:37;6.70;99.90
3713;DHT22;1872;51.406;6.856;2024-02-26T00:31:03;6.60;99.90
3713;DHT22;1872;51.406;6.856;2024-02-26T00:33:29;6.60;99.90
3713;DHT22;1872;51.406;6.856;2024-02-26T00:35:54;6.50;99.90
3713;DHT22;1872;51.406;6.856;2024-02-26T00:38:20;6.50;99.90
3713;DHT22;1872;51.406;6.856;2024-02-26T00:44:08;6.40;99.90
3713;DHT22;1872;51.406;6.856;2024-02-26T00:46:33;6.40;99.90
3713;DHT22;1872;51.406;6.856;2024-02-26T00:48:59;6.40;99.90
3713;DHT22;1872;51.406;6.856;2024-02-26T00:51:26;6.40;99.90
3713;DHT22;1872;51.406;6.856;2024-02-26T00:53:51;6.40;99.90
3713;DHT22;1872;51.406;6.856;2024-02-26T00:56:17;6.40;99.90
3713;DHT22;1872;51.406;6.856;2024-02-26T00:58:43;6.50;99.90
3713;DHT22;1872;51.406;6.856;2024-02-26T01:01:08;6.50;99.90
3713;DHT22;1872;51.406;6.856;2024-02-26T01:03:34;6.50;99.90
3713;DHT22;1872;51.406;6.856;2024-02-26T01:06:01;6.50;99.90
3713;DHT22;1872;51.406;6.856;2024-02-26T01:08:26;6.40;99.90
3713;DHT22;1872;51.406;6.856;2024-02-26T01:10:52;6.40;99.90
3713;DHT22;1872;51.406;6.856;2024-02-26T01:13:17;6.40;99.90
3713;DHT22;1872;51.406;6.856;2024-02-26T01:15:43;6.50;99.90
3713;DHT22;1872;51.406;6.856;2024-02-26T01:18:09;6.50;99.90
3713;DHT22;1872;51.406;6.856;2024-02-26T01:20:35;6.50;99.90
3713;DHT22;1872;51.406;6.856;2024-02-26T01:23:02;6.50;99.90
3713;DHT22;1872;51.406;6.856;2024-02-26T01:25:28;6.50;99.90
3713;DHT22;1872;51.406;6.856;2024-02-26T01:27:53;6.50;99.90
3713;DHT22;1872;51.406;6.856;2024-02-26T01:30:19;6.50;99.90
3713;DHT22;1872;51.406;6.856;2024-02-26T01:32:45;6.50;99.90
3713;DHT22;1872;51.406;6.856;2024-02-26T01:35:11;6.50;99.90
3713;DHT22;1872;51.406;6.856;2024-02-26T01:37:37;6.50;99.90
3713;DHT22;1872;51.406;6.856;2024-02-26T01:40:03;6.60;99.90
3713;DHT22;1872;51.406;6.856;2024-02-26T01:42:30;6.60;99.90
3713;DHT22;1872;51.406;6.856;2024-02-26T01:44:58;6.60;99.90
3713;DHT22;1872;51.406;6.856;2024-02-26T01:47:24;6.60;99.90
3713;DHT22;1872;51.406;6.856;2024-02-26T01:49:50;6.60;99.90
3713;DHT22;1872;51.406;6.856;2024-02-26T01:52:17;6.60;99.90
3713;DHT22;1872;51.406;6.856;2024-02-26T01:54:45;6.60;99.90
3713;DHT22;1872;51.406;6.856;2024-02-26T01:57:12;6.60;99.90
3713;DHT22;1872;51.406;6.856;2024-02-26T01:59:39;6.70;99.90
3713;DHT22;1872;51.406;6.856;2024-02-26T02:02:07;6.70;99.90
3713;DHT22;1872;51.406;6.856;2024-02-26T02:04:39;6.70;99.90
3713;DHT22;1872;51.406;6.856;2024-02-26T02:07:05;6.70;99.90
3713;DHT22;1872;51.406;6.856;2024-02-26T02:09:31;6.70;99.90
3713;DHT22;1872;51.406;6.856;2024-02-26T02:11:58;6.70;99.90
3713;DHT22;1872;51.406;6.856;2024-02-26T02:14:25;6.70;99.90
3713;DHT22;1872;51.406;6.856;2024-02-26T02:23:15;6.70;99.90
3713;DHT22;1872;51.406;6.856;2024-02-26T02:25:40;6.70;99.90
3713;DHT22;1872;51.406;6.856;2024-02-26T02:28:06;6.70;99.90
3713;DHT22;1872;51.406;6.856;2024-02-26T02:30:32;6.70;99.90
3713;DHT22;1872;51.406;6.856;2024-02-26T02:32:58;6.70;99.90
3713;DHT22;1872;51.406;6.856;2024-02-26T02:35:24;6.70;99.90
3713;DHT22;1872;51.406;6.856;2024-02-26T02:37:52;6.70;99.90
3713;DHT22;1872;51.406;6.856;2024-02-26T02:40:18;6.80;99.90
3713;DHT22;1872;51.406;6.856;2024-02-26T02:42:43;6.80;99.90
3713;DHT22;1872;51.406;6.856;2024-02-26T02:45:09;6.80;99.90
3713;DHT22;1872;51.406;6.856;2024-02-26T02:47:38;6.80;99.90
3713;DHT22;1872;51.406;6.856;2024-02-26T02:50:04;6.80;99.90
3713;DHT22;1872;51.406;6.856;2024-02-26T02:52:30;6.80;99.90
3713;DHT22;1872;51.406;6.856;2024-02-26T02:54:56;6.80;99.90
3713;DHT22;1872;51.406;6.856;2024-02-26T02:57:22;6.80;99.90
3713;DHT22;1872;51.406;6.856;2024-02-26T02:59:48;6.70;99.90
3713;DHT22;1872;51.406;6.856;2024-02-26T03:02:14;6.70;99.90
3713;DHT22;1872;51.406;6.856;2024-02-26T03:08:02;6.60;99.90
3713;DHT22;1872;51.406;6.856;2024-02-26T03:10:28;6.50;99.90
3713;DHT22;1872;51.406;6.856;2024-02-26T03:12:54;6.50;99.90
3713;DHT22;1872;51.406;6.856;2024-02-26T03:15:19;6.40;99.90
3713;DHT22;1872;51.406;6.856;2024-02-26T03:17:45;6.30;99.90
3713;DHT22;1872;51.406;6.856;2024-02-26T03:20:11;6.30;99.90
3713;DHT22;1872;51.406;6.856;2024-02-26T03:22:38;6.20;99.90
3713;DHT22;1872;51.406;6.856;2024-02-26T03:30:50;5.90;99.90
3713;DHT22;1872;51.406;6.856;2024-02-26T03:33:16;5.80;99.90
3713;DHT22;1872;51.406;6.856;2024-02-26T03:35:42;5.80;99.90
3713;DHT22;1872;51.406;6.856;2024-02-26T03:38:07;5.80;99.90
3713;DHT22;1872;51.406;6.856;2024-02-26T03:40:33;5.80;99.90
3713;DHT22;1872;51.406;6.856;2024-02-26T03:42:59;5.80;99.90
3713;DHT22;1872;51.406;6.856;2024-02-26T03:45:25;5.80;99.90
3713;DHT22;1872;51.406;6.856;2024-02-26T03:47:51;5.70;99.90
3713;DHT22;1872;51.406;6.856;2024-02-26T03:50:17;5.70;99.90
3713;DHT22;1872;51.406;6.856;2024-02-26T03:52:42;5.60;99.90
3713;DHT22;1872;51.406;6.856;2024-02-26T03:55:09;5.60;99.90
3713;DHT22;1872;51.406;6.856;2024-02-26T03:57:36;5.60;99.90
3713;DHT22;1872;51.406;6.856;2024-02-26T04:00:02;5.50;99.90
3713;DHT22;1872;51.406;6.856;2024-02-26T04:02:28;5.50;99.90
3713;DHT22;1872;51.406;6.856;2024-02-26T04:04:54;5.50;99.90
3713;DHT22;1872;51.406;6.856;2024-02-26T04:07:20;5.50;99.90
3713;DHT22;1872;51.406;6.856;2024-02-26T04:09:46;5.40;99.90
3713;DHT22;1872;51.406;6.856;2024-02-26T04:12:11;5.40;99.90
3713;DHT22;1872;51.406;6.856;2024-02-26T04:14:37;5.40;99.90
3713;DHT22;1872;51.406;6.856;2024-02-26T04:17:03;5.40;99.90
3713;DHT22;1872;51.406;6.856;2024-02-26T04:19:29;5.40;99.90
3713;DHT22;1872;51.406;6.856;2024-02-26T04:21:54;5.40;99.90
3713;DHT22;1872;51.406;6.856;2024-02-26T04:24:20;5.40;99.90
3713;DHT22;1872;51.406;6.856;2024-02-26T04:30:08;5.40;99.90
3713;DHT22;1872;51.406;6.856;2024-02-26T04:32:34;5.40;99.90
3713;DHT22;1872;51.406;6.856;2024-02-26T04:35:02;5.40;99.90
3713;DHT22;1872;51.406;6.856;2024-02-26T04:37:28;5.30;99.90
3713;DHT22;1872;51.406;6.856;2024-02-26T04:40:00;5.40;99.90
3713;DHT22;1872;51.406;6.856;2024-02-26T04:42:26;5.40;99.90
3713;DHT22;1872;51.406;6.856;2024-02-26T04:44:52;5.30;99.90
3713;DHT22;1872;51.406;6.856;2024-02-26T04:47:18;5.30;99.90
3713;DHT22;1872;51.406;6.856;2024-02-26T04:49:44;5.40;99.90
3713;DHT22;1872;51.406;6.856;2024-02-26T04:52:11;5.40;99.90
3713;DHT22;1872;51.406;6.856;2024-02-26T04:54:40;5.40;99.90
3713;DHT22;1872;51.406;6.856;2024-02-26T04:57:05;5.40;99.90
3713;DHT22;1872;51.406;6.856;2024-02-26T04:59:31;5.50;99.90
3713;DHT22;1872;51.406;6.856;2024-02-26T05:01:56;5.40;99.90
3713;DHT22;1872;51.406;6.856;2024-02-26T05:04:22;5.40;99.90
3713;DHT22;1872;51.406;6.856;2024-02-26T05:06:48;5.40;99.90
3713;DHT22;1872;51.406;6.856;2024-02-26T05:09:14;5.50;99.90
3713;DHT22;1872;51.406;6.856;2024-02-26T05:11:39;5.40;99.90
3713;DHT22;1872;51.406;6.856;2024-02-26T05:14:05;5.40;99.90
3713;DHT22;1872;51.406;6.856;2024-02-26T05:16:31;5.40;99.90
3713;DHT22;1872;51.406;6.856;2024-02-26T05:18:58;5.40;99.90
3713;DHT22;1872;51.406;6.856;2024-02-26T05:21:24;5.40;99.90
3713;DHT22;1872;51.406;6.856;2024-02-26T05:23:50;5.30;99.90
3713;DHT22;1872;51.406;6.856;2024-02-26T05:26:23;5.30;99.90
3713;DHT22;1872;51.406;6.856;2024-02-26T05:28:49;5.30;99.90
3713;DHT22;1872;51.406;6.856;2024-02-26T05:31:15;5.20;99.90
3713;DHT22;1872;51.406;6.856;2024-02-26T05:33:41;5.20;99.90
3713;DHT22;1872;51.406;6.856;2024-02-26T05:36:07;5.20;99.90
3713;DHT22;1872;51.406;6.856;2024-02-26T05:38:32;5.20;99.90
3713;DHT22;1872;51.406;6.856;2024-02-26T05:40:58;5.20;99.90
3713;DHT22;1872;51.406;6.856;2024-02-26T05:43:27;5.20;99.90
3713;DHT22;1872;51.406;6.856;2024-02-26T05:45:54;5.20;99.90
3713;DHT22;1872;51.406;6.856;2024-02-26T05:48:19;5.20;99.90
3713;DHT22;1872;51.406;6.856;2024-02-26T05:50:46;5.20;99.90
3713;DHT22;1872;51.406;6.856;2024-02-26T05:53:12;5.10;99.90
3713;DHT22;1872;51.406;6.856;2024-02-26T05:55:37;5.10;99.90
3713;DHT22;1872;51.406;6.856;2024-02-26T05:58:03;5.10;99.90
3713;DHT22;1872;51.406;6.856;2024-02-26T06:00:29;5.10;99.90
3713;DHT22;1872;51.406;6.856;2024-02-26T06:02:55;5.00;99.90
3713;DHT22;1872;51.406;6.856;2024-02-26T06:08:43;5.00;99.90
3713;DHT22;1872;51.406;6.856;2024-02-26T06:11:08;5.00;99.90
3713;DHT22;1872;51.406;6.856;2024-02-26T06:13:35;5.00;99.90
3713;DHT22;1872;51.406;6.856;2024-02-26T06:16:00;5.00;99.90
3713;DHT22;1872;51.406;6.856;2024-02-26T06:18:26;5.00;99.90
3713;DHT22;1872;51.406;6.856;2024-02-26T06:20:52;5.00;99.90
3713;DHT22;1872;51.406;6.856;2024-02-26T06:23:18;5.00;99.90
3713;DHT22;1872;51.406;6.856;2024-02-26T06:25:44;5.10;99.90
3713;DHT22;1872;51.406;6.856;2024-02-26T06:28:10;5.10;99.90
3713;DHT22;1872;51.406;6.856;2024-02-26T06:30:39;5.00;99.90
3713;DHT22;1872;51.406;6.856;2024-02-26T06:33:05;5.00;99.90
3713;DHT22;1872;51.406;6.856;2024-02-26T06:35:31;5.00;99.90
3713;DHT22;1872;51.406;6.856;2024-02-26T06:37:57;5.10;99.90
3713;DHT22;1872;51.406;6.856;2024-02-26T06:40:23;5.10;99.90
3713;DHT22;1872;51.406;6.856;2024-02-26T06:42:48;5.10;99.90
3713;DHT22;1872;51.406;6.856;2024-02-26T06:45:15;5.10;99.90
3713;DHT22;1872;51.406;6.856;2024-02-26T06:47:41;5.10;99.90
3713;DHT22;1872;51.406;6.856;2024-02-26T06:50:09;5.10;99.90
3713;DHT22;1872;51.406;6.856;2024-02-26T06:53:02;5.10;99.90
3713;DHT22;1872;51.406;6.856;2024-02-26T06:55:28;5.20;99.90
3713;DHT22;1872;51.406;6.856;2024-02-26T06:57:53;5.20;99.90
3713;DHT22;1872;51.406;6.856;2024-02-26T07:00:19;5.20;99.90
3713;DHT22;1872;51.406;6.856;2024-02-26T07:02:45;5.20;99.90
3713;DHT22;1872;51.406;6.856;2024-02-26T07:05:11;5.20;99.90
3713;DHT22;1872;51.406;6.856;2024-02-26T07:07:38;5.20;99.90
3713;DHT22;1872;51.406;6.856;2024-02-26T07:10:04;5.20;99.90
3713;DHT22;1872;51.406;6.856;2024-02-26T07:12:31;5.20;99.90
3713;DHT22;1872;51.406;6.856;2024-02-26T07:14:56;5.20;99.90
3713;DHT22;1872;51.406;6.856;2024-02-26T07:17:23;5.30;99.90
3713;DHT22;1872;51.406;6.856;2024-02-26T07:19:49;5.30;99.90
3713;DHT22;1872;51.406;6.856;2024-02-26T07:22:15;5.30;99.90
3713;DHT22;1872;51.406;6.856;2024-02-26T07:24:41;5.30;99.90
3713;DHT22;1872;51.406;6.856;2024-02-26T07:27:06;5.30;99.90
3713;DHT22;1872;51.406;6.856;2024-02-26T07:29:32;5.40;99.90
3713;DHT22;1872;51.406;6.856;2024-02-26T07:31:58;5.40;99.90
3713;DHT22;1872;51.406;6.856;2024-02-26T07:34:24;5.40;99.90
3713;DHT22;1872;51.406;6.856;2024-02-26T07:36:57;5.40;99.90
3713;DHT22;1872;51.406;6.856;2024-02-26T07:39:23;5.40;99.90
3713;DHT22;1872;51.406;6.856;2024-02-26T07:41:48;5.40;99.90
3713;DHT22;1872;51.406;6.856;2024-02-26T07:44:18;5.40;99.90
3713;DHT22;1872;51.406;6.856;2024-02-26T07:46:44;5.40;99.90
3713;DHT22;1872;51.406;6.856;2024-02-26T07:49:09;5.40;99.90
3713;DHT22;1872;51.406;6.856;2024-02-26T07:51:35;5.40;99.90
3713;DHT22;1872;51.406;6.856;2024-02-26T07:54:01;5.40;99.90
3713;DHT22;1872;51.406;6.856;2024-02-26T07:56:27;5.40;99.90
3713;DHT22;1872;51.406;6.856;2024-02-26T07:58:53;5.40;99.90
3713;DHT22;1872;51.406;6.856;2024-02-26T08:01:19;5.40;99.90
3713;DHT22;1872;51.406;6.856;2024-02-26T08:03:44;5.40;99.90
3713;DHT22;1872;51.406;6.856;2024-02-26T08:06:10;5.40;99.90
3713;DHT22;1872;51.406;6.856;2024-02-26T08:08:37;5.40;99.90
3713;DHT22;1872;51.406;6.856;2024-02-26T08:11:03;5.40;99.90
3713;DHT22;1872;51.406;6.856;2024-02-26T08:13:29;5.40;99.90
3713;DHT22;1872;51.406;6.856;2024-02-26T08:15:54;5.40;99.90
3713;DHT22;1872;51.406;6.856;2024-02-26T08:18:21;5.40;99.90
3713;DHT22;1872;51.406;6.856;2024-02-26T08:20:47;5.40;99.90
3713;DHT22;1872;51.406;6.856;2024-02-26T08:23:14;5.40;99.90
3713;DHT22;1872;51.406;6.856;2024-02-26T08:25:40;5.40;99.90
3713;DHT22;1872;51.406;6.856;2024-02-26T08:28:05;5.40;99.90
3713;DHT22;1872;51.406;6.856;2024-02-26T08:30:31;5.40;99.90
3713;DHT22;1872;51.406;6.856;2024-02-26T08:32:57;5.40;99.90
3713;DHT22;1872;51.406;6.856;2024-02-26T08:35:23;5.40;99.90
3713;DHT22;1872;51.406;6.856;2024-02-26T08:37:48;5.40;99.90
3713;DHT22;1872;51.406;6.856;2024-02-26T08:40:14;5.40;99.90
3713;DHT22;1872;51.406;6.856;2024-02-26T08:42:40;5.50;99.90
3713;DHT22;1872;51.406;6.856;2024-02-26T08:45:07;5.50;99.90
3713;DHT22;1872;51.406;6.856;2024-02-26T08:47:33;5.50;99.90
3713;DHT22;1872;51.406;6.856;2024-02-26T08:49:59;5.60;99.90
3713;DHT22;1872;51.406;6.856;2024-02-26T08:52:25;5.60;99.90
3713;DHT22;1872;51.406;6.856;2024-02-26T08:54:50;5.60;99.90
3713;DHT22;1872;51.406;6.856;2024-02-26T08:57:16;5.70;99.90
3713;DHT22;1872;51.406;6.856;2024-02-26T08:59:42;5.70;99.90
3713;DHT22;1872;51.406;6.856;2024-02-26T09:02:09;5.70;99.90
3713;DHT22;1872;51.406;6.856;2024-02-26T09:04:35;5.80;99.90
3713;DHT22;1872;51.406;6.856;2024-02-26T09:07:01;5.80;99.90
3713;DHT22;1872;51.406;6.856;2024-02-26T09:09:27;5.80;99.90
3713;DHT22;1872;51.406;6.856;2024-02-26T09:11:53;5.80;99.90
3713;DHT22;1872;51.406;6.856;2024-02-26T09:14:21;5.90;99.90
3713;DHT22;1872;51.406;6.856;2024-02-26T09:16:46;5.90;99.90
3713;DHT22;1872;51.406;6.856;2024-02-26T09:19:14;5.90;99.90
3713;DHT22;1872;51.406;6.856;2024-02-26T09:21:44;5.90;99.90
3713;DHT22;1872;51.406;6.856;2024-02-26T09:24:13;5.90;99.90
3713;DHT22;1872;51.406;6.856;2024-02-26T09:26:40;5.90;99.90
3713;DHT22;1872;51.406;6.856;2024-02-26T09:29:06;5.90;99.90
3713;DHT22;1872;51.406;6.856;2024-02-26T09:31:32;5.90;99.90
3713;DHT22;1872;51.406;6.856;2024-02-26T09:33:59;5.90;99.90
3713;DHT22;1872;51.406;6.856;2024-02-26T09:36:25;5.80;99.90
3713;DHT22;1872;51.406;6.856;2024-02-26T09:38:51;5.80;99.90
3713;DHT22;1872;51.406;6.856;2024-02-26T09:41:17;5.80;99.90
3713;DHT22;1872;51.406;6.856;2024-02-26T09:43:44;5.80;99.90
3713;DHT22;1872;51.406;6.856;2024-02-26T09:46:13;5.70;99.90
3713;DHT22;1872;51.406;6.856;2024-02-26T09:48:42;5.70;99.90
3713;DHT22;1872;51.406;6.856;2024-02-26T09:51:10;5.70;99.90
3713;DHT22;1872;51.406;6.856;2024-02-26T09:53:40;5.70;99.90
3713;DHT22;1872;51.406;6.856;2024-02-26T09:56:15;5.70;99.90
3713;DHT22;1872;51.406;6.856;2024-02-26T09:58:41;5.70;99.90
3713;DHT22;1872;51.406;6.856;2024-02-26T10:01:13;5.80;99.90
3713;DHT22;1872;51.406;6.856;2024-02-26T10:03:41;5.70;99.90
3713;DHT22;1872;51.406;6.856;2024-02-26T10:06:08;5.80;99.90
3713;DHT22;1872;51.406;6.856;2024-02-26T10:08:35;5.80;99.90
3713;DHT22;1872;51.406;6.856;2024-02-26T10:11:01;5.80;99.90
3713;DHT22;1872;51.406;6.856;2024-02-26T10:13:26;5.80;99.90
3713;DHT22;1872;51.406;6.856;2024-02-26T10:15:52;5.80;99.90
3713;DHT22;1872;51.406;6.856;2024-02-26T10:18:18;5.80;99.90
3713;DHT22;1872;51.406;6.856;2024-02-26T10:21:05;5.80;99.90
3713;DHT22;1872;51.406;6.856;2024-02-26T10:23:31;5.90;99.90
3713;DHT22;1872;51.406;6.856;2024-02-26T10:25:57;5.90;99.90
3713;DHT22;1872;51.406;6.856;2024-02-26T10:28:23;5.90;99.90
3713;DHT22;1872;51.406;6.856;2024-02-26T10:30:48;5.90;99.90
3713;DHT22;1872;51.406;6.856;2024-02-26T10:33:14;5.90;99.90
3713;DHT22;1872;51.406;6.856;2024-02-26T10:35:45;6.00;99.90
3713;DHT22;1872;51.406;6.856;2024-02-26T10:38:12;6.00;99.90
3713;DHT22;1872;51.406;6.856;2024-02-26T10:40:38;6.00;99.90
3713;DHT22;1872;51.406;6.856;2024-02-26T10:43:04;6.10;99.90
3713;DHT22;1872;51.406;6.856;2024-02-26T10:45:29;6.10;99.90
3713;DHT22;1872;51.406;6.856;2024-02-26T10:47:55;6.10;99.90
3713;DHT22;1872;51.406;6.856;2024-02-26T10:50:21;6.10;99.90
3713;DHT22;1872;51.406;6.856;2024-02-26T10:52:46;6.10;99.90
3713;DHT22;1872;51.406;6.856;2024-02-26T10:55:16;6.10;99.90
3713;DHT22;1872;51.406;6.856;2024-02-26T10:57:46;6.10;99.90
3713;DHT22;1872;51.406;6.856;2024-02-26T11:00:16;6.10;99.90
3713;DHT22;1872;51.406;6.856;2024-02-26T11:02:43;6.10;99.90
3713;DHT22;1872;51.406;6.856;2024-02-26T11:05:11;6.10;99.90
3713;DHT22;1872;51.406;6.856;2024-02-26T11:07:37;6.10;99.90
3713;DHT22;1872;51.406;6.856;2024-02-26T11:10:07;6.10;99.90
3713;DHT22;1872;51.406;6.856;2024-02-26T11:12:34;6.20;99.90
3713;DHT22;1872;51.406;6.856;2024-02-26T11:15:03;6.20;99.90
3713;DHT22;1872;51.406;6.856;2024-02-26T11:17:29;6.30;99.90
3713;DHT22;1872;51.406;6.856;2024-02-26T11:19:57;6.30;99.90
3713;DHT22;1872;51.406;6.856;2024-02-26T11:22:27;6.30;99.90
3713;DHT22;1872;51.406;6.856;2024-02-26T11:24:55;6.40;99.90
3713;DHT22;1872;51.406;6.856;2024-02-26T11:27:39;6.40;99.90
3713;DHT22;1872;51.406;6.856;2024-02-26T11:30:10;6.50;99.90
3713;DHT22;1872;51.406;6.856;2024-02-26T11:32:46;6.50;99.90
3713;DHT22;1872;51.406;6.856;2024-02-26T11:35:12;6.50;99.90
3713;DHT22;1872;51.406;6.856;2024-02-26T11:37:41;6.50;99.90
3713;DHT22;1872;51.406;6.856;2024-02-26T11:40:11;6.60;99.90
3713;DHT22;1872;51.406;6.856;2024-02-26T11:42:44;6.50;99.90
3713;DHT22;1872;51.406;6.856;2024-02-26T11:48:24;6.50;99.90
3713;DHT22;1872;51.406;6.856;2024-02-26T11:50:51;6.60;99.90
3713;DHT22;1872;51.406;6.856;2024-02-26T11:53:30;6.60;99.90
3713;DHT22;1872;51.406;6.856;2024-02-26T11:58:41;6.70;99.90
3713;DHT22;1872;51.406;6.856;2024-02-26T12:04:06;6.80;99.90
3713;DHT22;1872;51.406;6.856;2024-02-26T12:06:41;6.80;99.90
3713;DHT22;1872;51.406;6.856;2024-02-26T12:09:07;6.80;99.90
3713;DHT22;1872;51.406;6.856;2024-02-26T12:11:37;6.80;99.90
3713;DHT22;1872;51.406;6.856;2024-02-26T12:14:05;6.80;99.90
3713;DHT22;1872;51.406;6.856;2024-02-26T12:16:40;6.90;99.90
3713;DHT22;1872;51.406;6.856;2024-02-26T12:19:09;6.80;99.90
3713;DHT22;1872;51.406;6.856;2024-02-26T12:21:36;6.80;99.90
3713;DHT22;1872;51.406;6.856;2024-02-26T12:24:12;6.80;99.90
3713;DHT22;1872;51.406;6.856;2024-02-26T12:26:39;6.80;99.90
3713;DHT22;1872;51.406;6.856;2024-02-26T12:29:06;6.80;99.90
3713;DHT22;1872;51.406;6.856;2024-02-26T12:31:35;6.80;99.90
3713;DHT22;1872;51.406;6.856;2024-02-26T12:34:04;6.80;99.90
3713;DHT22;1872;51.406;6.856;2024-02-26T12:36:30;6.80;99.90
3713;DHT22;1872;51.406;6.856;2024-02-26T12:38:56;6.80;99.90
3713;DHT22;1872;51.406;6.856;2024-02-26T12:41:22;6.80;99.90
3713;DHT22;1872;51.406;6.856;2024-02-26T12:43:48;6.80;99.90
3713;DHT22;1872;51.406;6.856;2024-02-26T12:46:15;6.80;99.90
3713;DHT22;1872;51.406;6.856;2024-02-26T12:48:44;6.90;99.90
3713;DHT22;1872;51.406;6.856;2024-02-26T12:51:14;6.90;99.90
3713;DHT22;1872;51.406;6.856;2024-02-26T12:53:41;6.90;99.90
3713;DHT22;1872;51.406;6.856;2024-02-26T12:56:10;6.90;99.90
3713;DHT22;1872;51.406;6.856;2024-02-26T12:58:39;6.90;99.90
3713;DHT22;1872;51.406;6.856;2024-02-26T13:01:06;6.90;99.90
3713;DHT22;1872;51.406;6.856;2024-02-26T13:03:33;6.90;99.90
3713;DHT22;1872;51.406;6.856;2024-02-26T13:06:00;6.90;99.90
3713;DHT22;1872;51.406;6.856;2024-02-26T13:08:26;7.00;99.90
3713;DHT22;1872;51.406;6.856;2024-02-26T13:10:52;7.00;99.90
3713;DHT22;1872;51.406;6.856;2024-02-26T13:13:18;7.00;99.90
3713;DHT22;1872;51.406;6.856;2024-02-26T13:15:45;7.00;99.90
3713;DHT22;1872;51.406;6.856;2024-02-26T13:18:13;7.00;99.90
3713;DHT22;1872;51.406;6.856;2024-02-26T13:20:39;7.10;99.90
3713;DHT22;1872;51.406;6.856;2024-02-26T13:23:11;7.10;99.90
3713;DHT22;1872;51.406;6.856;2024-02-26T13:25:39;7.10;99.90
3713;DHT22;1872;51.406;6.856;2024-02-26T13:28:14;7.10;99.90
3713;DHT22;1872;51.406;6.856;2024-02-26T13:30:41;7.10;99.90
3713;DHT22;1872;51.406;6.856;2024-02-26T13:33:13;7.10;99.90
3713;DHT22;1872;51.406;6.856;2024-02-26T13:35:39;7.00;99.90
3713;DHT22;1872;51.406;6.856;2024-02-26T13:38:05;7.10;99.90
3713;DHT22;1872;51.406;6.856;2024-02-26T13:40:32;7.10;99.90
3713;DHT22;1872;51.406;6.856;2024-02-26T13:42:57;7.10;99.90
3713;DHT22;1872;51.406;6.856;2024-02-26T13:45:23;7.10;99.90
3713;DHT22;1872;51.406;6.856;2024-02-26T13:47:49;7.10;99.90
3713;DHT22;1872;51.406;6.856;2024-02-26T13:50:14;7.00;99.90
3713;DHT22;1872;51.406;6.856;2024-02-26T13:52:40;7.10;99.90
3713;DHT22;1872;51.406;6.856;2024-02-26T13:55:06;7.10;99.90
3713;DHT22;1872;51.406;6.856;2024-02-26T13:57:33;7.10;99.90
3713;DHT22;1872;51.406;6.856;2024-02-26T13:59:58;7.20;99.90
3713;DHT22;1872;51.406;6.856;2024-02-26T14:02:24;7.20;99.90
3713;DHT22;1872;51.406;6.856;2024-02-26T14:04:50;7.30;99.90
3713;DHT22;1872;51.406;6.856;2024-02-26T14:07:16;7.30;99.90
3713;DHT22;1872;51.406;6.856;2024-02-26T14:09:44;7.30;99.90
3713;DHT22;1872;51.406;6.856;2024-02-26T14:12:11;7.30;99.90
3713;DHT22;1872;51.406;6.856;2024-02-26T14:14:37;7.30;99.90
3713;DHT22;1872;51.406;6.856;2024-02-26T14:17:04;7.30;99.90
3713;DHT22;1872;51.406;6.856;2024-02-26T14:19:31;7.20;99.90
3713;DHT22;1872;51.406;6.856;2024-02-26T14:21:57;7.20;99.90
3713;DHT22;1872;51.406;6.856;2024-02-26T14:24:22;7.20;99.90
3713;DHT22;1872;51.406;6.856;2024-02-26T14:26:48;7.20;99.90
3713;DHT22;1872;51.406;6.856;2024-02-26T14:29:14;7.10;99.90
3713;DHT22;1872;51.406;6.856;2024-02-26T14:31:40;7.10;99.90
3713;DHT22;1872;51.406;6.856;2024-02-26T14:34:05;7.10;99.90
3713;DHT22;1872;51.406;6.856;2024-02-26T14:36:32;7.10;99.90
3713;DHT22;1872;51.406;6.856;2024-02-26T14:38:58;7.10;99.90
3713;DHT22;1872;51.406;6.856;2024-02-26T14:41:23;7.10;99.90
3713;DHT22;1872;51.406;6.856;2024-02-26T14:43:49;7.10;99.90
3713;DHT22;1872;51.406;6.856;2024-02-26T14:46:15;7.10;99.90
3713;DHT22;1872;51.406;6.856;2024-02-26T14:48:41;7.10;99.90
3713;DHT22;1872;51.406;6.856;2024-02-26T14:51:06;7.10;99.90
3713;DHT22;1872;51.406;6.856;2024-02-26T14:53:32;7.10;99.90
3713;DHT22;1872;51.406;6.856;2024-02-26T14:55:58;7.10;99.90
3713;DHT22;1872;51.406;6.856;2024-02-26T14:58:25;7.10;99.90
3713;DHT22;1872;51.406;6.856;2024-02-26T15:00:51;7.10;99.90
3713;DHT22;1872;51.406;6.856;2024-02-26T15:03:17;7.10;99.90
3713;DHT22;1872;51.406;6.856;2024-02-26T15:05:42;7.10;99.90
3713;DHT22;1872;51.406;6.856;2024-02-26T15:08:08;7.10;99.90
3713;DHT22;1872;51.406;6.856;2024-02-26T15:10:35;7.10;99.90
3713;DHT22;1872;51.406;6.856;2024-02-26T15:13:01;7.10;99.90
3713;DHT22;1872;51.406;6.856;2024-02-26T15:15:27;7.10;99.90
3713;DHT22;1872;51.406;6.856;2024-02-26T15:17:53;7.10;99.90
3713;DHT22;1872;51.406;6.856;2024-02-26T15:20:19;7.10;99.90
3713;DHT22;1872;51.406;6.856;2024-02-26T15:22:45;7.10;99.90
3713;DHT22;1872;51.406;6.856;2024-02-26T15:25:12;7.10;99.90
3713;DHT22;1872;51.406;6.856;2024-02-26T15:27:37;7.10;99.90
3713;DHT22;1872;51.406;6.856;2024-02-26T15:30:03;7.00;99.90
3713;DHT22;1872;51.406;6.856;2024-02-26T15:32:29;7.10;99.90
3713;DHT22;1872;51.406;6.856;2024-02-26T15:34:55;7.10;99.90
3713;DHT22;1872;51.406;6.856;2024-02-26T15:37:21;7.10;99.90
3713;DHT22;1872;51.406;6.856;2024-02-26T15:39:48;7.10;99.90
3713;DHT22;1872;51.406;6.856;2024-02-26T15:42:13;7.10;99.90
3713;DHT22;1872;51.406;6.856;2024-02-26T15:44:40;7.10;99.90
3713;DHT22;1872;51.406;6.856;2024-02-26T15:47:06;7.00;99.90
3713;DHT22;1872;51.406;6.856;2024-02-26T15:49:32;7.00;99.90
3713;DHT22;1872;51.406;6.856;2024-02-26T15:51:59;7.00;99.90
3713;DHT22;1872;51.406;6.856;2024-02-26T15:54:24;7.00;99.90
3713;DHT22;1872;51.406;6.856;2024-02-26T15:56:50;7.00;99.90
3713;DHT22;1872;51.406;6.856;2024-02-26T15:59:17;7.00;99.90
3713;DHT22;1872;51.406;6.856;2024-02-26T16:01:43;7.00;99.90
3713;DHT22;1872;51.406;6.856;2024-02-26T16:04:10;7.00;99.90
3713;DHT22;1872;51.406;6.856;2024-02-26T16:06:45;7.00;99.90
3713;DHT22;1872;51.406;6.856;2024-02-26T16:09:12;7.00;99.90
3713;DHT22;1872;51.406;6.856;2024-02-26T16:11:38;7.00;99.90
3713;DHT22;1872;51.406;6.856;2024-02-26T16:14:29;6.90;99.90
3713;DHT22;1872;51.406;6.856;2024-02-26T16:17:10;6.90;99.90
3713;DHT22;1872;51.406;6.856;2024-02-26T16:19:38;6.90;99.90
3713;DHT22;1872;51.406;6.856;2024-02-26T16:22:04;6.90;99.90
3713;DHT22;1872;51.406;6.856;2024-02-26T16:24:30;6.90;99.90
3713;DHT22;1872;51.406;6.856;2024-02-26T16:26:55;6.90;99.90
3713;DHT22;1872;51.406;6.856;2024-02-26T16:29:21;6.90;99.90
3713;DHT22;1872;51.406;6.856;2024-02-26T16:31:47;6.90;99.90
3713;DHT22;1872;51.406;6.856;2024-02-26T16:34:13;6.90;99.90
3713;DHT22;1872;51.406;6.856;2024-02-26T16:36:39;6.90;99.90
3713;DHT22;1872;51.406;6.856;2024-02-26T16:39:05;6.90;99.90
3713;DHT22;1872;51.406;6.856;2024-02-26T16:41:33;6.90;99.90
3713;DHT22;1872;51.406;6.856;2024-02-26T16:43:59;6.90;99.90
3713;DHT22;1872;51.406;6.856;2024-02-26T16:46:25;6.90;99.90
3713;DHT22;1872;51.406;6.856;2024-02-26T16:48:51;6.90;99.90